sensor_id;sensor_type;location;lat;lon;timestamp;P1;durP1;ratioP1;P2;durP2;ratioP2
5805;SDS011;2929;50.810;8.342;2024-03-06T00:01:04;30.57;;;16.90;;
5805;SDS011;2929;50.810;8.342;2024-03-06T00:03:32;35.43;;;17.53;;
5805;SDS011;2929;50.810;8.342;2024-03-06T00:05:58;35.87;;;18.40;;
5805;SDS011;2929;50.810;8.342;2024-03-06T00:08:27;33.80;;;17.17;;
5805;SDS011;2929;50.810;8.342;2024-03-06T00:10:54;39.27;;;18.60;;
5805;SDS011;2929;50.810;8.342;2024-03-06T00:13:21;32.40;;;16.77;;
5805;SDS011;2929;50.810;8.342;2024-03-06T00:15:48;36.73;;;16.23;;
5805;SDS011;2929;50.810;8.342;2024-03-06T00:18:15;30.20;;;16.63;;
5805;SDS011;2929;50.810;8.342;2024-03-06T00:20:41;35.67;;;16.93;;
5805;SDS011;2929;50.810;8.342;2024-03-06T00:23:09;27.97;;;15.40;;
5805;SDS011;2929;50.810;8.342;2024-03-06T00:25:39;36.73;;;17.03;;
5805;SDS011;2929;50.810;8.342;2024-03-06T00:28:06;30.77;;;16.33;;
5805;SDS011;2929;50.810;8.342;2024-03-06T00:30:33;32.13;;;17.20;;
5805;SDS011;2929;50.810;8.342;2024-03-06T00:33:00;26.60;;;15.03;;
5805;SDS011;2929;50.810;8.342;2024-03-06T00:35:26;26.63;;;16.00;;
5805;SDS011;2929;50.810;8.342;2024-03-06T00:37:54;29.53;;;14.73;;
5805;SDS011;2929;50.810;8.342;2024-03-06T00:40:21;33.63;;;17.70;;
5805;SDS011;2929;50.810;8.342;2024-03-06T00:42:51;38.60;;;16.70;;
5805;SDS011;2929;50.810;8.342;2024-03-06T00:45:18;41.30;;;17.87;;
5805;SDS011;2929;50.810;8.342;2024-03-06T00:47:45;41.87;;;17.97;;
5805;SDS011;2929;50.810;8.342;2024-03-06T00:50:12;34.60;;;16.00;;
5805;SDS011;2929;50.810;8.342;2024-03-06T00:52:43;35.57;;;16.93;;
5805;SDS011;2929;50.810;8.342;2024-03-06T00:55:10;33.63;;;17.70;;
5805;SDS011;2929;50.810;8.342;2024-03-06T00:57:37;29.40;;;14.23;;
5805;SDS011;2929;50.810;8.342;2024-03-06T01:00:06;28.93;;;15.50;;
5805;SDS011;2929;50.810;8.342;2024-03-06T01:02:35;33.10;;;17.10;;
5805;SDS011;2929;50.810;8.342;2024-03-06T01:05:02;29.50;;;15.93;;
5805;SDS011;2929;50.810;8.342;2024-03-06T01:07:30;31.70;;;16.77;;
5805;SDS011;2929;50.810;8.342;2024-03-06T01:09:57;49.27;;;15.77;;
5805;SDS011;2929;50.810;8.342;2024-03-06T01:12:24;31.27;;;14.90;;
5805;SDS011;2929;50.810;8.342;2024-03-06T01:14:52;34.47;;;16.60;;
5805;SDS011;2929;50.810;8.342;2024-03-06T01:17:20;30.47;;;16.13;;
5805;SDS011;2929;50.810;8.342;2024-03-06T01:19:47;33.93;;;16.20;;
5805;SDS011;2929;50.810;8.342;2024-03-06T01:22:14;31.80;;;15.57;;
5805;SDS011;2929;50.810;8.342;2024-03-06T01:24:42;34.57;;;16.60;;
5805;SDS011;2929;50.810;8.342;2024-03-06T01:27:10;31.00;;;15.97;;
5805;SDS011;2929;50.810;8.342;2024-03-06T01:29:36;34.97;;;15.20;;
5805;SDS011;2929;50.810;8.342;2024-03-06T01:32:03;29.53;;;16.13;;
5805;SDS011;2929;50.810;8.342;2024-03-06T01:34:32;37.53;;;17.30;;
5805;SDS011;2929;50.810;8.342;2024-03-06T01:36:59;32.90;;;15.90;;
5805;SDS011;2929;50.810;8.342;2024-03-06T01:39:26;29.50;;;16.00;;
5805;SDS011;2929;50.810;8.342;2024-03-06T01:41:53;29.87;;;16.10;;
5805;SDS011;2929;50.810;8.342;2024-03-06T01:44:20;36.70;;;16.00;;
5805;SDS011;2929;50.810;8.342;2024-03-06T01:46:48;30.73;;;16.50;;
5805;SDS011;2929;50.810;8.342;2024-03-06T01:49:15;36.87;;;17.00;;
5805;SDS011;2929;50.810;8.342;2024-03-06T01:51:45;29.80;;;14.77;;
5805;SDS011;2929;50.810;8.342;2024-03-06T01:54:15;34.53;;;15.40;;
5805;SDS011;2929;50.810;8.342;2024-03-06T01:56:43;32.77;;;15.33;;
5805;SDS011;2929;50.810;8.342;2024-03-06T01:59:11;33.57;;;16.10;;
5805;SDS011;2929;50.810;8.342;2024-03-06T02:01:39;31.47;;;16.43;;
5805;SDS011;2929;50.810;8.342;2024-03-06T02:04:06;31.20;;;15.10;;
5805;SDS011;2929;50.810;8.342;2024-03-06T02:06:34;26.70;;;13.03;;
5805;SDS011;2929;50.810;8.342;2024-03-06T02:09:04;25.90;;;13.30;;
5805;SDS011;2929;50.810;8.342;2024-03-06T02:11:32;26.70;;;13.57;;
5805;SDS011;2929;50.810;8.342;2024-03-06T02:13:59;28.60;;;14.60;;
5805;SDS011;2929;50.810;8.342;2024-03-06T02:16:26;26.73;;;14.27;;
5805;SDS011;2929;50.810;8.342;2024-03-06T02:18:53;26.90;;;13.47;;
5805;SDS011;2929;50.810;8.342;2024-03-06T02:21:21;26.90;;;14.47;;
5805;SDS011;2929;50.810;8.342;2024-03-06T02:23:50;27.60;;;13.57;;
5805;SDS011;2929;50.810;8.342;2024-03-06T02:26:20;32.73;;;15.53;;
5805;SDS011;2929;50.810;8.342;2024-03-06T02:28:48;28.07;;;14.70;;
5805;SDS011;2929;50.810;8.342;2024-03-06T02:31:16;28.47;;;14.40;;
5805;SDS011;2929;50.810;8.342;2024-03-06T02:33:45;32.93;;;15.10;;
5805;SDS011;2929;50.810;8.342;2024-03-06T02:36:13;32.03;;;17.00;;
5805;SDS011;2929;50.810;8.342;2024-03-06T02:38:42;35.07;;;16.40;;
5805;SDS011;2929;50.810;8.342;2024-03-06T02:41:09;28.80;;;14.97;;
5805;SDS011;2929;50.810;8.342;2024-03-06T02:43:36;33.90;;;16.30;;
5805;SDS011;2929;50.810;8.342;2024-03-06T02:46:04;36.27;;;16.73;;
5805;SDS011;2929;50.810;8.342;2024-03-06T02:48:31;30.00;;;15.20;;
5805;SDS011;2929;50.810;8.342;2024-03-06T02:50:58;29.10;;;14.40;;
5805;SDS011;2929;50.810;8.342;2024-03-06T02:53:25;34.13;;;15.30;;
5805;SDS011;2929;50.810;8.342;2024-03-06T02:55:54;34.37;;;15.67;;
5805;SDS011;2929;50.810;8.342;2024-03-06T02:58:21;33.60;;;15.43;;
5805;SDS011;2929;50.810;8.342;2024-03-06T03:00:48;33.60;;;15.73;;
5805;SDS011;2929;50.810;8.342;2024-03-06T03:03:15;29.80;;;14.90;;
5805;SDS011;2929;50.810;8.342;2024-03-06T03:05:42;33.53;;;15.00;;
5805;SDS011;2929;50.810;8.342;2024-03-06T03:08:09;28.47;;;13.87;;
5805;SDS011;2929;50.810;8.342;2024-03-06T03:10:36;27.40;;;13.70;;
5805;SDS011;2929;50.810;8.342;2024-03-06T03:13:04;26.70;;;13.53;;
5805;SDS011;2929;50.810;8.342;2024-03-06T03:15:31;26.10;;;13.03;;
5805;SDS011;2929;50.810;8.342;2024-03-06T03:17:58;23.70;;;12.67;;
5805;SDS011;2929;50.810;8.342;2024-03-06T03:20:25;26.67;;;13.07;;
5805;SDS011;2929;50.810;8.342;2024-03-06T03:22:52;24.47;;;13.17;;
5805;SDS011;2929;50.810;8.342;2024-03-06T03:25:19;25.50;;;13.30;;
5805;SDS011;2929;50.810;8.342;2024-03-06T03:27:47;22.50;;;12.10;;
5805;SDS011;2929;50.810;8.342;2024-03-06T03:30:15;26.47;;;13.47;;
5805;SDS011;2929;50.810;8.342;2024-03-06T03:32:46;24.30;;;13.17;;
5805;SDS011;2929;50.810;8.342;2024-03-06T03:35:13;26.37;;;13.60;;
5805;SDS011;2929;50.810;8.342;2024-03-06T03:37:42;30.20;;;14.37;;
5805;SDS011;2929;50.810;8.342;2024-03-06T03:40:09;28.60;;;14.10;;
5805;SDS011;2929;50.810;8.342;2024-03-06T03:42:37;27.27;;;13.67;;
5805;SDS011;2929;50.810;8.342;2024-03-06T03:45:04;28.97;;;15.07;;
5805;SDS011;2929;50.810;8.342;2024-03-06T03:47:33;31.30;;;14.20;;
5805;SDS011;2929;50.810;8.342;2024-03-06T03:50:00;25.10;;;12.90;;
5805;SDS011;2929;50.810;8.342;2024-03-06T03:52:27;29.03;;;14.90;;
5805;SDS011;2929;50.810;8.342;2024-03-06T03:54:55;26.50;;;13.80;;
5805;SDS011;2929;50.810;8.342;2024-03-06T03:57:22;29.33;;;14.13;;
5805;SDS011;2929;50.810;8.342;2024-03-06T03:59:49;29.63;;;15.40;;
5805;SDS011;2929;50.810;8.342;2024-03-06T04:02:16;32.87;;;15.17;;
5805;SDS011;2929;50.810;8.342;2024-03-06T04:04:44;33.07;;;15.13;;
5805;SDS011;2929;50.810;8.342;2024-03-06T04:07:11;25.90;;;13.07;;
5805;SDS011;2929;50.810;8.342;2024-03-06T04:09:41;31.20;;;13.93;;
5805;SDS011;2929;50.810;8.342;2024-03-06T04:12:08;29.40;;;12.80;;
5805;SDS011;2929;50.810;8.342;2024-03-06T04:14:35;23.23;;;12.30;;
5805;SDS011;2929;50.810;8.342;2024-03-06T04:17:02;28.10;;;14.30;;
5805;SDS011;2929;50.810;8.342;2024-03-06T04:19:30;28.37;;;13.47;;
5805;SDS011;2929;50.810;8.342;2024-03-06T04:21:59;32.30;;;15.07;;
5805;SDS011;2929;50.810;8.342;2024-03-06T04:24:26;32.57;;;14.47;;
5805;SDS011;2929;50.810;8.342;2024-03-06T04:26:54;34.77;;;17.00;;
5805;SDS011;2929;50.810;8.342;2024-03-06T04:29:22;26.93;;;14.27;;
5805;SDS011;2929;50.810;8.342;2024-03-06T04:31:49;26.77;;;13.00;;
5805;SDS011;2929;50.810;8.342;2024-03-06T04:34:16;25.97;;;13.50;;
5805;SDS011;2929;50.810;8.342;2024-03-06T04:36:43;23.47;;;11.40;;
5805;SDS011;2929;50.810;8.342;2024-03-06T04:39:11;25.63;;;13.33;;
5805;SDS011;2929;50.810;8.342;2024-03-06T04:41:38;27.67;;;12.23;;
5805;SDS011;2929;50.810;8.342;2024-03-06T04:44:05;26.10;;;12.70;;
5805;SDS011;2929;50.810;8.342;2024-03-06T04:46:33;25.67;;;13.13;;
5805;SDS011;2929;50.810;8.342;2024-03-06T04:49:00;28.60;;;15.60;;
5805;SDS011;2929;50.810;8.342;2024-03-06T04:51:27;28.33;;;13.83;;
5805;SDS011;2929;50.810;8.342;2024-03-06T04:53:53;26.57;;;14.27;;
5805;SDS011;2929;50.810;8.342;2024-03-06T04:56:22;27.17;;;12.63;;
5805;SDS011;2929;50.810;8.342;2024-03-06T04:58:49;24.90;;;13.00;;
5805;SDS011;2929;50.810;8.342;2024-03-06T05:01:17;26.57;;;13.20;;
5805;SDS011;2929;50.810;8.342;2024-03-06T05:03:45;23.67;;;11.83;;
5805;SDS011;2929;50.810;8.342;2024-03-06T05:06:12;29.87;;;14.00;;
5805;SDS011;2929;50.810;8.342;2024-03-06T05:08:39;29.60;;;13.97;;
5805;SDS011;2929;50.810;8.342;2024-03-06T05:11:06;22.93;;;12.30;;
5805;SDS011;2929;50.810;8.342;2024-03-06T05:13:34;23.57;;;12.83;;
5805;SDS011;2929;50.810;8.342;2024-03-06T05:16:01;25.50;;;12.93;;
5805;SDS011;2929;50.810;8.342;2024-03-06T05:18:28;25.70;;;11.90;;
5805;SDS011;2929;50.810;8.342;2024-03-06T05:20:55;24.80;;;12.57;;
5805;SDS011;2929;50.810;8.342;2024-03-06T05:23:22;23.63;;;11.73;;
5805;SDS011;2929;50.810;8.342;2024-03-06T05:25:49;26.33;;;11.60;;
5805;SDS011;2929;50.810;8.342;2024-03-06T05:28:16;18.43;;;10.43;;
5805;SDS011;2929;50.810;8.342;2024-03-06T05:30:44;22.47;;;12.67;;
5805;SDS011;2929;50.810;8.342;2024-03-06T05:33:12;23.80;;;11.50;;
5805;SDS011;2929;50.810;8.342;2024-03-06T05:35:39;22.27;;;10.90;;
5805;SDS011;2929;50.810;8.342;2024-03-06T05:38:06;19.53;;;10.20;;
5805;SDS011;2929;50.810;8.342;2024-03-06T05:40:33;29.80;;;10.60;;
5805;SDS011;2929;50.810;8.342;2024-03-06T05:43:02;37.67;;;11.80;;
5805;SDS011;2929;50.810;8.342;2024-03-06T05:45:34;28.40;;;12.27;;
5805;SDS011;2929;50.810;8.342;2024-03-06T05:48:02;28.57;;;11.70;;
5805;SDS011;2929;50.810;8.342;2024-03-06T05:50:29;29.80;;;12.77;;
5805;SDS011;2929;50.810;8.342;2024-03-06T05:52:57;26.60;;;12.87;;
5805;SDS011;2929;50.810;8.342;2024-03-06T05:55:25;26.30;;;12.13;;
5805;SDS011;2929;50.810;8.342;2024-03-06T05:57:53;23.93;;;11.77;;
5805;SDS011;2929;50.810;8.342;2024-03-06T06:00:20;23.33;;;13.07;;
5805;SDS011;2929;50.810;8.342;2024-03-06T06:02:47;24.60;;;12.30;;
5805;SDS011;2929;50.810;8.342;2024-03-06T06:05:15;26.10;;;12.43;;
5805;SDS011;2929;50.810;8.342;2024-03-06T06:07:45;35.83;;;15.70;;
5805;SDS011;2929;50.810;8.342;2024-03-06T06:10:12;39.93;;;16.30;;
5805;SDS011;2929;50.810;8.342;2024-03-06T06:12:39;31.30;;;14.70;;
5805;SDS011;2929;50.810;8.342;2024-03-06T06:15:06;42.83;;;16.90;;
5805;SDS011;2929;50.810;8.342;2024-03-06T06:17:34;43.63;;;14.83;;
5805;SDS011;2929;50.810;8.342;2024-03-06T06:20:03;57.07;;;16.60;;
5805;SDS011;2929;50.810;8.342;2024-03-06T06:22:36;46.33;;;16.90;;
5805;SDS011;2929;50.810;8.342;2024-03-06T06:25:03;40.23;;;16.40;;
5805;SDS011;2929;50.810;8.342;2024-03-06T06:27:32;50.40;;;18.97;;
5805;SDS011;2929;50.810;8.342;2024-03-06T06:29:59;40.87;;;17.30;;
5805;SDS011;2929;50.810;8.342;2024-03-06T06:32:26;50.77;;;18.27;;
5805;SDS011;2929;50.810;8.342;2024-03-06T06:34:53;50.90;;;18.57;;
5805;SDS011;2929;50.810;8.342;2024-03-06T06:37:21;46.50;;;19.57;;
5805;SDS011;2929;50.810;8.342;2024-03-06T06:39:50;53.30;;;20.90;;
5805;SDS011;2929;50.810;8.342;2024-03-06T06:42:16;46.20;;;19.17;;
5805;SDS011;2929;50.810;8.342;2024-03-06T06:44:43;56.40;;;19.20;;
5805;SDS011;2929;50.810;8.342;2024-03-06T06:47:10;158.83;;;18.30;;
5805;SDS011;2929;50.810;8.342;2024-03-06T06:49:37;100.23;;;16.77;;
5805;SDS011;2929;50.810;8.342;2024-03-06T06:52:04;57.97;;;15.47;;
5805;SDS011;2929;50.810;8.342;2024-03-06T06:54:33;59.47;;;14.20;;
5805;SDS011;2929;50.810;8.342;2024-03-06T06:57:01;82.50;;;17.00;;
5805;SDS011;2929;50.810;8.342;2024-03-06T06:59:29;81.17;;;16.90;;
5805;SDS011;2929;50.810;8.342;2024-03-06T07:01:56;66.87;;;16.40;;
5805;SDS011;2929;50.810;8.342;2024-03-06T07:04:24;57.37;;;15.47;;
5805;SDS011;2929;50.810;8.342;2024-03-06T07:06:51;160.57;;;19.87;;
5805;SDS011;2929;50.810;8.342;2024-03-06T07:09:18;82.73;;;15.20;;
5805;SDS011;2929;50.810;8.342;2024-03-06T07:11:45;70.83;;;13.63;;
5805;SDS011;2929;50.810;8.342;2024-03-06T07:14:14;66.20;;;15.47;;
5805;SDS011;2929;50.810;8.342;2024-03-06T07:16:41;56.33;;;12.50;;
5805;SDS011;2929;50.810;8.342;2024-03-06T07:19:09;57.80;;;14.50;;
5805;SDS011;2929;50.810;8.342;2024-03-06T07:21:36;41.93;;;13.37;;
5805;SDS011;2929;50.810;8.342;2024-03-06T07:24:04;56.70;;;13.77;;
5805;SDS011;2929;50.810;8.342;2024-03-06T07:26:32;67.33;;;14.30;;
5805;SDS011;2929;50.810;8.342;2024-03-06T07:29:00;32.23;;;13.73;;
5805;SDS011;2929;50.810;8.342;2024-03-06T07:31:29;54.80;;;13.63;;
5805;SDS011;2929;50.810;8.342;2024-03-06T07:33:57;68.70;;;15.20;;
5805;SDS011;2929;50.810;8.342;2024-03-06T07:36:26;39.33;;;13.40;;
5805;SDS011;2929;50.810;8.342;2024-03-06T07:38:53;46.90;;;14.33;;
5805;SDS011;2929;50.810;8.342;2024-03-06T07:41:21;48.47;;;12.03;;
5805;SDS011;2929;50.810;8.342;2024-03-06T07:43:48;63.67;;;15.17;;
5805;SDS011;2929;50.810;8.342;2024-03-06T07:46:15;32.17;;;12.77;;
5805;SDS011;2929;50.810;8.342;2024-03-06T07:48:44;30.70;;;13.20;;
5805;SDS011;2929;50.810;8.342;2024-03-06T07:51:11;36.27;;;15.57;;
5805;SDS011;2929;50.810;8.342;2024-03-06T07:53:38;34.93;;;13.97;;
5805;SDS011;2929;50.810;8.342;2024-03-06T07:56:05;25.53;;;13.17;;
5805;SDS011;2929;50.810;8.342;2024-03-06T07:58:36;28.23;;;13.00;;
5805;SDS011;2929;50.810;8.342;2024-03-06T08:01:03;31.07;;;13.37;;
5805;SDS011;2929;50.810;8.342;2024-03-06T08:03:32;35.17;;;15.07;;
5805;SDS011;2929;50.810;8.342;2024-03-06T08:06:00;32.47;;;15.90;;
5805;SDS011;2929;50.810;8.342;2024-03-06T08:08:29;35.23;;;13.37;;
5805;SDS011;2929;50.810;8.342;2024-03-06T08:10:56;33.83;;;13.30;;
5805;SDS011;2929;50.810;8.342;2024-03-06T08:13:23;33.93;;;12.57;;
5805;SDS011;2929;50.810;8.342;2024-03-06T08:15:49;36.10;;;13.73;;
5805;SDS011;2929;50.810;8.342;2024-03-06T08:18:18;39.40;;;12.70;;
5805;SDS011;2929;50.810;8.342;2024-03-06T08:20:45;38.17;;;13.97;;
5805;SDS011;2929;50.810;8.342;2024-03-06T08:23:13;39.03;;;12.97;;
5805;SDS011;2929;50.810;8.342;2024-03-06T08:25:40;36.83;;;13.67;;
5805;SDS011;2929;50.810;8.342;2024-03-06T08:28:07;40.90;;;14.27;;
5805;SDS011;2929;50.810;8.342;2024-03-06T08:30:36;35.13;;;14.23;;
5805;SDS011;2929;50.810;8.342;2024-03-06T08:33:03;28.43;;;13.30;;
5805;SDS011;2929;50.810;8.342;2024-03-06T08:35:30;30.50;;;12.43;;
5805;SDS011;2929;50.810;8.342;2024-03-06T08:37:57;28.43;;;13.50;;
5805;SDS011;2929;50.810;8.342;2024-03-06T08:40:26;27.27;;;12.80;;
5805;SDS011;2929;50.810;8.342;2024-03-06T08:42:53;29.77;;;13.40;;
5805;SDS011;2929;50.810;8.342;2024-03-06T08:45:20;32.73;;;13.13;;
5805;SDS011;2929;50.810;8.342;2024-03-06T08:47:48;28.13;;;13.40;;
5805;SDS011;2929;50.810;8.342;2024-03-06T08:50:15;25.63;;;13.63;;
5805;SDS011;2929;50.810;8.342;2024-03-06T08:52:42;29.20;;;15.03;;
5805;SDS011;2929;50.810;8.342;2024-03-06T08:55:09;27.67;;;13.60;;
5805;SDS011;2929;50.810;8.342;2024-03-06T08:57:38;33.27;;;16.63;;
5805;SDS011;2929;50.810;8.342;2024-03-06T09:00:06;31.83;;;14.80;;
5805;SDS011;2929;50.810;8.342;2024-03-06T09:02:35;32.97;;;14.77;;
5805;SDS011;2929;50.810;8.342;2024-03-06T09:05:04;26.70;;;14.77;;
5805;SDS011;2929;50.810;8.342;2024-03-06T09:07:32;32.60;;;15.37;;
5805;SDS011;2929;50.810;8.342;2024-03-06T09:10:03;29.87;;;14.70;;
5805;SDS011;2929;50.810;8.342;2024-03-06T09:12:32;31.60;;;15.60;;
5805;SDS011;2929;50.810;8.342;2024-03-06T09:15:00;33.93;;;15.23;;
5805;SDS011;2929;50.810;8.342;2024-03-06T09:17:28;33.67;;;17.03;;
5805;SDS011;2929;50.810;8.342;2024-03-06T09:19:55;29.33;;;15.50;;
5805;SDS011;2929;50.810;8.342;2024-03-06T09:22:23;32.20;;;14.87;;
5805;SDS011;2929;50.810;8.342;2024-03-06T09:24:52;31.93;;;14.80;;
5805;SDS011;2929;50.810;8.342;2024-03-06T09:27:20;26.10;;;13.00;;
5805;SDS011;2929;50.810;8.342;2024-03-06T09:29:49;25.13;;;13.87;;
5805;SDS011;2929;50.810;8.342;2024-03-06T09:32:17;27.10;;;14.60;;
5805;SDS011;2929;50.810;8.342;2024-03-06T09:34:45;22.57;;;12.50;;
5805;SDS011;2929;50.810;8.342;2024-03-06T09:37:12;23.40;;;12.30;;
5805;SDS011;2929;50.810;8.342;2024-03-06T09:39:40;23.43;;;12.60;;
5805;SDS011;2929;50.810;8.342;2024-03-06T09:42:07;20.03;;;11.23;;
5805;SDS011;2929;50.810;8.342;2024-03-06T09:44:34;25.27;;;12.77;;
5805;SDS011;2929;50.810;8.342;2024-03-06T09:47:02;21.97;;;11.40;;
5805;SDS011;2929;50.810;8.342;2024-03-06T09:49:42;22.30;;;11.03;;
5805;SDS011;2929;50.810;8.342;2024-03-06T09:52:09;18.87;;;10.30;;
5805;SDS011;2929;50.810;8.342;2024-03-06T09:54:37;17.93;;;10.50;;
5805;SDS011;2929;50.810;8.342;2024-03-06T09:57:05;19.57;;;11.30;;
5805;SDS011;2929;50.810;8.342;2024-03-06T09:59:32;20.50;;;12.00;;
5805;SDS011;2929;50.810;8.342;2024-03-06T10:02:03;20.43;;;10.67;;
5805;SDS011;2929;50.810;8.342;2024-03-06T10:04:46;17.73;;;9.47;;
5805;SDS011;2929;50.810;8.342;2024-03-06T10:07:13;17.83;;;9.97;;
5805;SDS011;2929;50.810;8.342;2024-03-06T10:09:40;17.13;;;10.77;;
5805;SDS011;2929;50.810;8.342;2024-03-06T10:12:11;19.53;;;10.67;;
5805;SDS011;2929;50.810;8.342;2024-03-06T10:14:38;18.07;;;9.93;;
5805;SDS011;2929;50.810;8.342;2024-03-06T10:17:05;15.17;;;8.67;;
5805;SDS011;2929;50.810;8.342;2024-03-06T10:19:32;15.43;;;8.17;;
5805;SDS011;2929;50.810;8.342;2024-03-06T10:22:01;14.87;;;7.63;;
5805;SDS011;2929;50.810;8.342;2024-03-06T10:24:33;14.10;;;8.80;;
5805;SDS011;2929;50.810;8.342;2024-03-06T10:27:00;15.30;;;7.67;;
5805;SDS011;2929;50.810;8.342;2024-03-06T10:29:28;14.67;;;7.80;;
5805;SDS011;2929;50.810;8.342;2024-03-06T10:31:56;12.40;;;7.20;;
5805;SDS011;2929;50.810;8.342;2024-03-06T10:34:24;11.63;;;6.53;;
5805;SDS011;2929;50.810;8.342;2024-03-06T10:36:53;11.03;;;6.93;;
5805;SDS011;2929;50.810;8.342;2024-03-06T10:39:23;11.83;;;7.40;;
5805;SDS011;2929;50.810;8.342;2024-03-06T10:41:51;13.83;;;8.23;;
5805;SDS011;2929;50.810;8.342;2024-03-06T10:44:21;13.77;;;7.63;;
5805;SDS011;2929;50.810;8.342;2024-03-06T10:46:53;12.70;;;6.70;;
5805;SDS011;2929;50.810;8.342;2024-03-06T10:49:23;10.73;;;7.13;;
5805;SDS011;2929;50.810;8.342;2024-03-06T10:51:54;10.27;;;6.97;;
5805;SDS011;2929;50.810;8.342;2024-03-06T10:54:27;15.73;;;8.20;;
5805;SDS011;2929;50.810;8.342;2024-03-06T10:56:56;12.10;;;7.23;;
5805;SDS011;2929;50.810;8.342;2024-03-06T10:59:24;12.80;;;6.67;;
5805;SDS011;2929;50.810;8.342;2024-03-06T11:01:55;25.13;;;6.07;;
5805;SDS011;2929;50.810;8.342;2024-03-06T11:04:26;12.40;;;7.33;;
5805;SDS011;2929;50.810;8.342;2024-03-06T11:06:55;9.87;;;6.70;;
5805;SDS011;2929;50.810;8.342;2024-03-06T11:09:24;9.40;;;6.37;;
5805;SDS011;2929;50.810;8.342;2024-03-06T11:11:54;15.20;;;7.70;;
5805;SDS011;2929;50.810;8.342;2024-03-06T11:14:22;13.23;;;7.80;;
5805;SDS011;2929;50.810;8.342;2024-03-06T11:17:01;15.93;;;7.53;;
5805;SDS011;2929;50.810;8.342;2024-03-06T11:19:30;13.10;;;7.60;;
5805;SDS011;2929;50.810;8.342;2024-03-06T11:21:57;12.33;;;7.83;;
5805;SDS011;2929;50.810;8.342;2024-03-06T11:24:31;12.03;;;6.73;;
5805;SDS011;2929;50.810;8.342;2024-03-06T11:27:01;15.47;;;8.17;;
5805;SDS011;2929;50.810;8.342;2024-03-06T11:32:29;12.20;;;7.13;;
5805;SDS011;2929;50.810;8.342;2024-03-06T11:34:58;13.30;;;8.73;;
5805;SDS011;2929;50.810;8.342;2024-03-06T11:37:25;13.00;;;7.57;;
5805;SDS011;2929;50.810;8.342;2024-03-06T11:39:52;13.73;;;9.27;;
5805;SDS011;2929;50.810;8.342;2024-03-06T11:42:33;15.87;;;9.50;;
5805;SDS011;2929;50.810;8.342;2024-03-06T11:45:12;16.97;;;9.70;;
5805;SDS011;2929;50.810;8.342;2024-03-06T11:48:01;11.93;;;8.13;;
5805;SDS011;2929;50.810;8.342;2024-03-06T11:50:29;16.23;;;8.53;;
5805;SDS011;2929;50.810;8.342;2024-03-06T11:52:57;12.90;;;8.67;;
5805;SDS011;2929;50.810;8.342;2024-03-06T11:55:24;17.50;;;8.90;;
5805;SDS011;2929;50.810;8.342;2024-03-06T11:57:53;17.63;;;8.47;;
5805;SDS011;2929;50.810;8.342;2024-03-06T12:00:21;14.90;;;8.60;;
5805;SDS011;2929;50.810;8.342;2024-03-06T12:02:48;14.00;;;8.23;;
5805;SDS011;2929;50.810;8.342;2024-03-06T12:05:16;13.37;;;8.37;;
5805;SDS011;2929;50.810;8.342;2024-03-06T12:07:46;16.60;;;7.87;;
5805;SDS011;2929;50.810;8.342;2024-03-06T12:10:14;13.50;;;7.97;;
5805;SDS011;2929;50.810;8.342;2024-03-06T12:12:43;14.57;;;7.70;;
5805;SDS011;2929;50.810;8.342;2024-03-06T12:15:14;13.80;;;8.27;;
5805;SDS011;2929;50.810;8.342;2024-03-06T12:17:48;17.70;;;8.87;;
5805;SDS011;2929;50.810;8.342;2024-03-06T12:20:17;13.17;;;8.10;;
5805;SDS011;2929;50.810;8.342;2024-03-06T12:22:45;13.87;;;8.40;;
5805;SDS011;2929;50.810;8.342;2024-03-06T12:25:18;14.13;;;8.27;;
5805;SDS011;2929;50.810;8.342;2024-03-06T12:27:46;12.60;;;7.93;;
5805;SDS011;2929;50.810;8.342;2024-03-06T12:30:15;15.57;;;8.53;;
5805;SDS011;2929;50.810;8.342;2024-03-06T12:32:43;9.03;;;6.50;;
5805;SDS011;2929;50.810;8.342;2024-03-06T12:35:15;15.60;;;8.40;;
5805;SDS011;2929;50.810;8.342;2024-03-06T12:37:59;14.27;;;8.30;;
5805;SDS011;2929;50.810;8.342;2024-03-06T12:40:37;14.83;;;8.80;;
5805;SDS011;2929;50.810;8.342;2024-03-06T12:43:06;21.57;;;12.77;;
5805;SDS011;2929;50.810;8.342;2024-03-06T12:45:36;20.40;;;11.50;;
5805;SDS011;2929;50.810;8.342;2024-03-06T12:48:05;14.20;;;8.10;;
5805;SDS011;2929;50.810;8.342;2024-03-06T12:50:33;15.00;;;9.37;;
5805;SDS011;2929;50.810;8.342;2024-03-06T12:53:00;18.47;;;9.50;;
5805;SDS011;2929;50.810;8.342;2024-03-06T12:55:29;21.50;;;11.40;;
5805;SDS011;2929;50.810;8.342;2024-03-06T12:57:57;14.50;;;9.20;;
5805;SDS011;2929;50.810;8.342;2024-03-06T13:00:25;15.93;;;8.00;;
5805;SDS011;2929;50.810;8.342;2024-03-06T13:02:53;17.33;;;9.33;;
5805;SDS011;2929;50.810;8.342;2024-03-06T13:05:21;11.83;;;8.00;;
5805;SDS011;2929;50.810;8.342;2024-03-06T13:07:48;13.10;;;8.10;;
5805;SDS011;2929;50.810;8.342;2024-03-06T13:10:17;13.23;;;8.23;;
5805;SDS011;2929;50.810;8.342;2024-03-06T13:12:44;11.87;;;7.60;;
5805;SDS011;2929;50.810;8.342;2024-03-06T13:15:11;13.20;;;7.40;;
5805;SDS011;2929;50.810;8.342;2024-03-06T13:17:38;12.83;;;8.63;;
5805;SDS011;2929;50.810;8.342;2024-03-06T13:20:07;11.00;;;7.80;;
5805;SDS011;2929;50.810;8.342;2024-03-06T13:22:36;13.33;;;8.43;;
5805;SDS011;2929;50.810;8.342;2024-03-06T13:25:04;12.90;;;8.43;;
5805;SDS011;2929;50.810;8.342;2024-03-06T13:27:33;11.60;;;7.63;;
5805;SDS011;2929;50.810;8.342;2024-03-06T13:30:02;15.20;;;8.63;;
5805;SDS011;2929;50.810;8.342;2024-03-06T13:32:33;14.83;;;8.97;;
5805;SDS011;2929;50.810;8.342;2024-03-06T13:35:00;12.23;;;8.23;;
5805;SDS011;2929;50.810;8.342;2024-03-06T13:37:28;10.10;;;7.27;;
5805;SDS011;2929;50.810;8.342;2024-03-06T13:39:55;14.97;;;8.93;;
5805;SDS011;2929;50.810;8.342;2024-03-06T13:42:26;17.33;;;9.57;;
5805;SDS011;2929;50.810;8.342;2024-03-06T13:44:53;14.97;;;9.97;;
5805;SDS011;2929;50.810;8.342;2024-03-06T13:47:21;12.50;;;8.57;;
5805;SDS011;2929;50.810;8.342;2024-03-06T13:49:48;15.00;;;8.20;;
5805;SDS011;2929;50.810;8.342;2024-03-06T13:52:15;13.83;;;8.30;;
5805;SDS011;2929;50.810;8.342;2024-03-06T13:54:46;12.27;;;8.23;;
5805;SDS011;2929;50.810;8.342;2024-03-06T13:57:14;13.83;;;9.43;;
5805;SDS011;2929;50.810;8.342;2024-03-06T13:59:42;15.40;;;9.43;;
5805;SDS011;2929;50.810;8.342;2024-03-06T14:02:09;17.60;;;9.90;;
5805;SDS011;2929;50.810;8.342;2024-03-06T14:04:36;15.20;;;9.53;;
5805;SDS011;2929;50.810;8.342;2024-03-06T14:07:04;16.77;;;10.90;;
5805;SDS011;2929;50.810;8.342;2024-03-06T14:09:32;14.60;;;9.53;;
5805;SDS011;2929;50.810;8.342;2024-03-06T14:12:01;26.77;;;10.30;;
5805;SDS011;2929;50.810;8.342;2024-03-06T14:14:28;14.40;;;9.93;;
5805;SDS011;2929;50.810;8.342;2024-03-06T14:16:55;16.83;;;10.57;;
5805;SDS011;2929;50.810;8.342;2024-03-06T14:19:22;15.07;;;10.30;;
5805;SDS011;2929;50.810;8.342;2024-03-06T14:21:49;14.00;;;8.90;;
5805;SDS011;2929;50.810;8.342;2024-03-06T14:24:17;14.10;;;9.70;;
5805;SDS011;2929;50.810;8.342;2024-03-06T14:26:46;14.33;;;9.20;;
5805;SDS011;2929;50.810;8.342;2024-03-06T14:29:15;13.23;;;8.90;;
5805;SDS011;2929;50.810;8.342;2024-03-06T14:31:42;13.50;;;9.40;;
5805;SDS011;2929;50.810;8.342;2024-03-06T14:34:09;12.63;;;8.90;;
5805;SDS011;2929;50.810;8.342;2024-03-06T14:36:36;13.30;;;9.33;;
5805;SDS011;2929;50.810;8.342;2024-03-06T14:39:03;11.67;;;8.07;;
5805;SDS011;2929;50.810;8.342;2024-03-06T14:41:30;13.80;;;9.10;;
5805;SDS011;2929;50.810;8.342;2024-03-06T14:43:57;13.77;;;8.63;;
5805;SDS011;2929;50.810;8.342;2024-03-06T14:46:28;14.57;;;9.10;;
5805;SDS011;2929;50.810;8.342;2024-03-06T14:48:55;16.33;;;9.60;;
5805;SDS011;2929;50.810;8.342;2024-03-06T14:51:22;17.97;;;8.93;;
5805;SDS011;2929;50.810;8.342;2024-03-06T14:53:52;14.30;;;8.80;;
5805;SDS011;2929;50.810;8.342;2024-03-06T14:56:20;10.93;;;7.93;;
5805;SDS011;2929;50.810;8.342;2024-03-06T14:58:47;11.83;;;7.93;;
5805;SDS011;2929;50.810;8.342;2024-03-06T15:01:14;12.07;;;8.17;;